• Join FlightAware (Why Join?)
  • Login
  • US Flag 
12:02AM EDT


 

Airport Tracker/Info


-or-


 

Live Flight TrackerFlight Track Log ✈ N588AC ✈ 05-May-2013 ✈ KCRE - KBCB

Flight Track Log - Related Links

Times and Time Zones

All times are in EDT time to prevent confusion due to time zone crossing. See the N588AC flight status page for this flight to view local times or setup timezone preferences in your user account.

Time Position Orientation Groundspeed Altitude Reporting Facility
EDT Latitude Longitude Course Direction KTS MPH feet Rate Location/Type
10:18AM 33.9861 -78.8353 331° Northwest 296 341 5,600  Level Jacksonville Center
10:19AM 34.0606 -78.8794 334° Northwest 301 346 8,400 2,280 Climbing Jacksonville Center
10:20AM 34.1331 -78.9264 332° Northwest 301 346 10,200 1,560 Climbing Jacksonville Center
10:21AM 34.2144 -78.9651 331° Northwest  Level FlightAware Approximate
10:22AM 34.2833 -79.0111 331° Northwest  Level FlightAware Approximate
10:22AM 34.3267 -79.0344 335° Northwest 336 387 13,800  Level Washington Center
10:23AM 34.4169 -79.0939 331° Northwest 336 387 15,600 1,560 Climbing Washington Center
10:24AM 34.4928 -79.1372 335° Northwest 341 392 16,900 1,140 Climbing Washington Center
10:25AM 34.5767 -79.1914 332° Northwest 341 392 17,900 960 Climbing Washington Center
10:26AM 34.6628 -79.2456 333° Northwest 341 392 18,900 900 Climbing Washington Center
10:27AM 34.7508 -79.3003 333° Northwest 341 392 19,800 960 Climbing Washington Center
10:28AM 34.8408 -79.3575 332° Northwest 347 399 20,800 1,020 Climbing Washington Center
10:29AM 34.9353 -79.4050 338° Northwest 357 411 21,900 1,440 Climbing Washington Center
10:30AM 35.0297 -79.4475 340° North 363 418 23,800 1,680 Climbing Washington Center
10:31AM 35.1203 -79.4872 340° North 357 411 25,300 1,080 Climbing Washington Center
10:32AM 35.2108 -79.5247 341° North 347 399 26,000 300 Climbing Washington Center
10:33AM 35.3075 -79.5675 340° North 347 399 26,000 -180 Level Washington Center
10:35AM 35.4978 -79.6486 341° North 370 426 25,600 -480 Descending Atlanta Center
10:36AM 35.5994 -79.6917 341° North 383 441 24,700 -1,020 Descending Atlanta Center
10:37AM 35.7011 -79.7297 343° North 383 441 23,600 -1,080 Descending Atlanta Center
10:38AM 35.8028 -79.7756 340° North 383 441 22,600 -1,020 Descending Atlanta Center
10:39AM 35.9025 -79.8217 339° North 383 441 21,600 -1,080 Descending Atlanta Center
10:40AM 36.0019 -79.8678 339° North 383 441 20,500 -1,200 Descending Atlanta Center
10:41AM 36.0889 -79.9044 341° North 376 433 19,300 -1,200 Descending Atlanta Center
10:42AM 36.1839 -79.9458 341° North 370 426 18,100 -1,200 Descending Atlanta Center
10:43AM 36.2814 -79.9872 341° North 370 426 16,900 -1,200 Descending Atlanta Center
10:44AM 36.3725 -80.0342 337° Northwest 365 420 15,700 -1,380 Descending Atlanta Center
10:45AM 36.4719 -80.0758 341° North 353 406 14,200 -1,500 Descending Atlanta Center
10:46AM 36.5628 -80.1178 340° North 348 400 12,700 -1,680 Descending Atlanta Center
10:47AM 36.6517 -80.1575 340° North 343 395 10,900 -1,560 Descending Atlanta Center
10:48AM 36.7386 -80.1972 340° North 336 387 9,600 -1,200 Descending Atlanta Center
10:49AM 36.8231 -80.2347 340° North 331 381 8,500 -1,140 Descending Atlanta Center
10:50AM 36.8950 -80.2675 340° North 319 367 7,400 -1,200 Descending Atlanta Center
10:51AM 36.9733 -80.3053 339° North 307 353 6,200 -720 Descending Atlanta Center
10:52AM 37.0514 -80.3381 341° North 307 353 6,000 -300 Descending Atlanta Center
10:53AM 37.1275 -80.3736 340° North 296 341 5,600 -660 Descending Atlanta Center
10:54AM 37.2042 -80.4300 330° Northwest 296 341 4,700 -720 Descending Atlanta Center
10:55AM 37.2742 -80.4683 336° Northwest 289 333 4,200 -540 Descending Atlanta Center